sensor_id;sensor_type;location;lat;lon;timestamp;pressure;altitude;pressure_sealevel;temperature;humidity
16595;BME280;8410;52.532;13.336;2023-11-21T00:00:09;100397.81;;;11.92;84.54
16595;BME280;8410;52.532;13.336;2023-11-21T00:02:40;100390.13;;;12.38;83.26
16595;BME280;8410;52.532;13.336;2023-11-21T00:05:07;100391.81;;;12.10;84.21
16595;BME280;8410;52.532;13.336;2023-11-21T00:07:36;100399.59;;;12.08;82.43
16595;BME280;8410;52.532;13.336;2023-11-21T00:10:04;100398.56;;;11.51;84.07
16595;BME280;8410;52.532;13.336;2023-11-21T00:12:34;100404.75;;;12.33;83.00
16595;BME280;8410;52.532;13.336;2023-11-21T00:15:02;100410.59;;;11.54;83.55
16595;BME280;8410;52.532;13.336;2023-11-21T00:17:33;100403.81;;;12.86;79.72
16595;BME280;8410;52.532;13.336;2023-11-21T00:20:00;100411.63;;;12.28;80.14
16595;BME280;8410;52.532;13.336;2023-11-21T00:22:33;100416.78;;;12.03;81.52
16595;BME280;8410;52.532;13.336;2023-11-21T00:25:01;100423.66;;;12.17;82.79
16595;BME280;8410;52.532;13.336;2023-11-21T00:27:29;100414.84;;;11.41;81.90
16595;BME280;8410;52.532;13.336;2023-11-21T00:29:57;100426.97;;;11.60;81.43
16595;BME280;8410;52.532;13.336;2023-11-21T00:32:25;100423.66;;;12.32;80.40
16595;BME280;8410;52.532;13.336;2023-11-21T00:34:53;100427.97;;;12.34;76.79
16595;BME280;8410;52.532;13.336;2023-11-21T00:37:21;100421.94;;;12.49;77.52
16595;BME280;8410;52.532;13.336;2023-11-21T00:39:50;100443.25;;;11.50;79.21
16595;BME280;8410;52.532;13.336;2023-11-21T00:42:17;100435.59;;;11.75;81.52
16595;BME280;8410;52.532;13.336;2023-11-21T00:44:45;100433.75;;;11.34;81.19
16595;BME280;8410;52.532;13.336;2023-11-21T00:47:12;100439.69;;;11.17;81.85
16595;BME280;8410;52.532;13.336;2023-11-21T00:49:40;100445.00;;;11.62;81.09
16595;BME280;8410;52.532;13.336;2023-11-21T00:52:09;100443.06;;;11.10;81.68
16595;BME280;8410;52.532;13.336;2023-11-21T00:54:37;100445.53;;;10.95;82.24
16595;BME280;8410;52.532;13.336;2023-11-21T00:57:04;100450.41;;;10.55;83.07
16595;BME280;8410;52.532;13.336;2023-11-21T00:59:32;100449.72;;;10.79;82.64
16595;BME280;8410;52.532;13.336;2023-11-21T01:01:59;100465.06;;;10.62;83.07
16595;BME280;8410;52.532;13.336;2023-11-21T01:04:28;100455.72;;;10.76;82.95
16595;BME280;8410;52.532;13.336;2023-11-21T01:06:55;100460.72;;;10.58;82.96
16595;BME280;8410;52.532;13.336;2023-11-21T01:09:24;100464.28;;;10.74;83.54
16595;BME280;8410;52.532;13.336;2023-11-21T01:11:52;100456.16;;;11.62;81.05
16595;BME280;8410;52.532;13.336;2023-11-21T01:14:20;100464.84;;;11.83;79.51
16595;BME280;8410;52.532;13.336;2023-11-21T01:16:47;100476.47;;;11.01;82.21
16595;BME280;8410;52.532;13.336;2023-11-21T01:19:15;100473.31;;;11.48;80.11
16595;BME280;8410;52.532;13.336;2023-11-21T01:21:43;100476.72;;;11.44;81.83
16595;BME280;8410;52.532;13.336;2023-11-21T01:24:10;100474.97;;;11.31;81.15
16595;BME280;8410;52.532;13.336;2023-11-21T01:26:39;100483.59;;;11.39;81.92
16595;BME280;8410;52.532;13.336;2023-11-21T01:29:07;100497.06;;;10.95;82.21
16595;BME280;8410;52.532;13.336;2023-11-21T01:31:34;100497.19;;;11.16;81.02
16595;BME280;8410;52.532;13.336;2023-11-21T01:34:03;100493.72;;;11.11;80.88
16595;BME280;8410;52.532;13.336;2023-11-21T01:36:31;100489.56;;;11.38;80.84
16595;BME280;8410;52.532;13.336;2023-11-21T01:38:59;100496.91;;;10.76;82.53
16595;BME280;8410;52.532;13.336;2023-11-21T01:41:27;100489.94;;;12.64;78.12
16595;BME280;8410;52.532;13.336;2023-11-21T01:43:56;100489.53;;;11.27;77.80
16595;BME280;8410;52.532;13.336;2023-11-21T01:46:24;100508.69;;;10.50;82.03
16595;BME280;8410;52.532;13.336;2023-11-21T01:48:52;100490.44;;;11.34;79.29
16595;BME280;8410;52.532;13.336;2023-11-21T01:51:20;100504.84;;;11.02;80.17
16595;BME280;8410;52.532;13.336;2023-11-21T01:53:47;100498.06;;;11.15;81.08
16595;BME280;8410;52.532;13.336;2023-11-21T01:56:15;100513.44;;;11.04;79.30
16595;BME280;8410;52.532;13.336;2023-11-21T01:58:43;100519.72;;;10.35;84.06
16595;BME280;8410;52.532;13.336;2023-11-21T02:01:11;100512.88;;;11.62;79.94
16595;BME280;8410;52.532;13.336;2023-11-21T02:03:40;100520.25;;;10.96;80.22
16595;BME280;8410;52.532;13.336;2023-11-21T02:06:08;100529.41;;;10.64;81.17
16595;BME280;8410;52.532;13.336;2023-11-21T02:08:36;100524.44;;;10.84;81.54
16595;BME280;8410;52.532;13.336;2023-11-21T02:11:04;100534.59;;;10.65;81.24
16595;BME280;8410;52.532;13.336;2023-11-21T02:13:33;100527.97;;;10.06;82.47
16595;BME280;8410;52.532;13.336;2023-11-21T02:16:01;100535.88;;;10.26;82.74
16595;BME280;8410;52.532;13.336;2023-11-21T02:18:30;100539.22;;;10.16;83.41
16595;BME280;8410;52.532;13.336;2023-11-21T02:20:57;100534.47;;;10.51;82.35
16595;BME280;8410;52.532;13.336;2023-11-21T02:23:26;100539.50;;;10.41;81.71
16595;BME280;8410;52.532;13.336;2023-11-21T02:25:55;100534.63;;;10.71;80.15
16595;BME280;8410;52.532;13.336;2023-11-21T02:28:23;100537.97;;;10.59;82.16
16595;BME280;8410;52.532;13.336;2023-11-21T02:30:52;100533.88;;;10.83;81.34
16595;BME280;8410;52.532;13.336;2023-11-21T02:33:22;100535.88;;;11.22;79.61
16595;BME280;8410;52.532;13.336;2023-11-21T02:35:49;100537.88;;;10.49;80.83
16595;BME280;8410;52.532;13.336;2023-11-21T02:38:21;100543.38;;;10.92;80.47
16595;BME280;8410;52.532;13.336;2023-11-21T02:40:50;100540.16;;;11.22;79.94
16595;BME280;8410;52.532;13.336;2023-11-21T02:43:18;100540.25;;;11.34;79.70
16595;BME280;8410;52.532;13.336;2023-11-21T02:45:45;100551.97;;;10.91;78.81
16595;BME280;8410;52.532;13.336;2023-11-21T02:48:13;100544.09;;;10.72;80.20
16595;BME280;8410;52.532;13.336;2023-11-21T02:50:40;100542.28;;;10.62;79.52
16595;BME280;8410;52.532;13.336;2023-11-21T02:53:09;100546.75;;;10.80;79.42
16595;BME280;8410;52.532;13.336;2023-11-21T02:55:37;100546.41;;;10.43;80.30
16595;BME280;8410;52.532;13.336;2023-11-21T02:58:06;100544.59;;;10.34;81.91
16595;BME280;8410;52.532;13.336;2023-11-21T03:00:33;100553.38;;;10.55;79.92
16595;BME280;8410;52.532;13.336;2023-11-21T03:03:01;100546.31;;;10.35;82.04
16595;BME280;8410;52.532;13.336;2023-11-21T03:05:28;100560.44;;;10.77;81.01
16595;BME280;8410;52.532;13.336;2023-11-21T03:07:56;100571.59;;;10.75;80.15
16595;BME280;8410;52.532;13.336;2023-11-21T03:10:23;100562.41;;;10.21;81.38
16595;BME280;8410;52.532;13.336;2023-11-21T03:12:51;100560.88;;;10.32;82.26
16595;BME280;8410;52.532;13.336;2023-11-21T03:15:20;100561.91;;;10.48;81.34
16595;BME280;8410;52.532;13.336;2023-11-21T03:17:47;100569.75;;;9.88;82.15
16595;BME280;8410;52.532;13.336;2023-11-21T03:20:16;100570.28;;;9.64;84.15
16595;BME280;8410;52.532;13.336;2023-11-21T03:22:44;100576.47;;;9.77;83.30
16595;BME280;8410;52.532;13.336;2023-11-21T03:25:11;100578.94;;;9.68;84.57
16595;BME280;8410;52.532;13.336;2023-11-21T03:27:39;100590.53;;;10.04;82.02
16595;BME280;8410;52.532;13.336;2023-11-21T03:30:09;100586.03;;;9.87;83.60
16595;BME280;8410;52.532;13.336;2023-11-21T03:32:38;100598.53;;;9.60;84.86
16595;BME280;8410;52.532;13.336;2023-11-21T03:35:06;100606.81;;;9.43;83.55
16595;BME280;8410;52.532;13.336;2023-11-21T03:37:34;100591.03;;;10.45;81.95
16595;BME280;8410;52.532;13.336;2023-11-21T03:40:02;100604.47;;;10.21;82.09
16595;BME280;8410;52.532;13.336;2023-11-21T03:42:30;100607.84;;;10.20;80.52
16595;BME280;8410;52.532;13.336;2023-11-21T03:44:58;100615.53;;;9.53;82.88
16595;BME280;8410;52.532;13.336;2023-11-21T03:47:26;100613.22;;;9.70;82.94
16595;BME280;8410;52.532;13.336;2023-11-21T03:49:54;100622.31;;;9.46;81.94
16595;BME280;8410;52.532;13.336;2023-11-21T03:52:22;100619.31;;;9.19;83.40
16595;BME280;8410;52.532;13.336;2023-11-21T03:54:49;100632.06;;;9.13;83.17
16595;BME280;8410;52.532;13.336;2023-11-21T03:57:17;100630.72;;;9.36;83.58
16595;BME280;8410;52.532;13.336;2023-11-21T03:59:44;100635.03;;;9.39;83.38
16595;BME280;8410;52.532;13.336;2023-11-21T04:02:12;100643.94;;;9.08;83.70
16595;BME280;8410;52.532;13.336;2023-11-21T04:04:39;100632.13;;;9.19;84.31
16595;BME280;8410;52.532;13.336;2023-11-21T04:07:09;100632.31;;;9.87;81.31
16595;BME280;8410;52.532;13.336;2023-11-21T04:09:37;100635.00;;;9.97;80.48
16595;BME280;8410;52.532;13.336;2023-11-21T04:12:05;100639.44;;;10.08;81.05
16595;BME280;8410;52.532;13.336;2023-11-21T04:14:33;100638.50;;;10.00;79.73
16595;BME280;8410;52.532;13.336;2023-11-21T04:17:00;100640.50;;;10.24;78.92
16595;BME280;8410;52.532;13.336;2023-11-21T04:19:28;100647.16;;;10.10;77.88
16595;BME280;8410;52.532;13.336;2023-11-21T04:21:55;100644.44;;;10.65;76.75
16595;BME280;8410;52.532;13.336;2023-11-21T04:24:24;100652.94;;;10.56;77.30
16595;BME280;8410;52.532;13.336;2023-11-21T04:26:52;100656.09;;;10.36;77.58
16595;BME280;8410;52.532;13.336;2023-11-21T04:29:19;100661.94;;;9.61;79.02
16595;BME280;8410;52.532;13.336;2023-11-21T04:31:47;100667.41;;;9.85;79.29
16595;BME280;8410;52.532;13.336;2023-11-21T04:34:15;100667.41;;;9.85;77.64
16595;BME280;8410;52.532;13.336;2023-11-21T04:36:43;100671.47;;;9.68;79.77
16595;BME280;8410;52.532;13.336;2023-11-21T04:39:10;100670.03;;;9.32;80.44
16595;BME280;8410;52.532;13.336;2023-11-21T04:41:39;100673.75;;;9.51;80.87
16595;BME280;8410;52.532;13.336;2023-11-21T04:44:06;100676.44;;;9.59;79.69
16595;BME280;8410;52.532;13.336;2023-11-21T04:46:34;100672.88;;;10.75;78.50
16595;BME280;8410;52.532;13.336;2023-11-21T04:49:02;100676.81;;;10.46;76.85
16595;BME280;8410;52.532;13.336;2023-11-21T04:51:29;100682.44;;;10.89;77.63
16595;BME280;8410;52.532;13.336;2023-11-21T04:53:58;100681.94;;;10.43;78.15
16595;BME280;8410;52.532;13.336;2023-11-21T04:56:26;100680.03;;;10.28;76.42
16595;BME280;8410;52.532;13.336;2023-11-21T04:58:55;100681.53;;;10.15;77.53
16595;BME280;8410;52.532;13.336;2023-11-21T05:01:22;100698.63;;;9.54;78.18
16595;BME280;8410;52.532;13.336;2023-11-21T05:03:50;100700.22;;;9.44;78.68
16595;BME280;8410;52.532;13.336;2023-11-21T05:06:19;100701.00;;;9.40;78.86
16595;BME280;8410;52.532;13.336;2023-11-21T05:08:46;100710.03;;;9.68;77.27
16595;BME280;8410;52.532;13.336;2023-11-21T05:11:23;100698.91;;;10.28;76.93
16595;BME280;8410;52.532;13.336;2023-11-21T05:13:51;100710.81;;;9.64;76.81
16595;BME280;8410;52.532;13.336;2023-11-21T05:16:20;100703.75;;;10.10;76.30
16595;BME280;8410;52.532;13.336;2023-11-21T05:18:48;100717.56;;;10.15;75.20
16595;BME280;8410;52.532;13.336;2023-11-21T05:21:17;100725.28;;;9.59;77.58
16595;BME280;8410;52.532;13.336;2023-11-21T05:23:47;100731.31;;;9.61;76.35
16595;BME280;8410;52.532;13.336;2023-11-21T05:26:14;100731.28;;;9.58;78.36
16595;BME280;8410;52.532;13.336;2023-11-21T05:28:42;100726.41;;;9.23;77.83
16595;BME280;8410;52.532;13.336;2023-11-21T05:31:09;100733.53;;;8.91;79.31
16595;BME280;8410;52.532;13.336;2023-11-21T05:33:44;100734.81;;;9.16;79.08
16595;BME280;8410;52.532;13.336;2023-11-21T05:36:12;100729.44;;;9.50;78.17
16595;BME280;8410;52.532;13.336;2023-11-21T05:38:39;100746.00;;;9.69;76.95
16595;BME280;8410;52.532;13.336;2023-11-21T05:41:07;100739.97;;;9.67;77.43
16595;BME280;8410;52.532;13.336;2023-11-21T05:43:37;100738.53;;;9.32;77.13
16595;BME280;8410;52.532;13.336;2023-11-21T05:46:05;100742.13;;;9.41;77.81
16595;BME280;8410;52.532;13.336;2023-11-21T05:48:33;100761.00;;;9.97;75.47
16595;BME280;8410;52.532;13.336;2023-11-21T05:51:06;100755.09;;;10.02;76.25
16595;BME280;8410;52.532;13.336;2023-11-21T05:53:34;100764.78;;;9.64;76.35
16595;BME280;8410;52.532;13.336;2023-11-21T05:56:02;100760.19;;;9.44;76.71
16595;BME280;8410;52.532;13.336;2023-11-21T05:58:30;100756.28;;;9.68;75.93
16595;BME280;8410;52.532;13.336;2023-11-21T06:00:58;100757.91;;;9.63;75.54
16595;BME280;8410;52.532;13.336;2023-11-21T06:03:26;100782.88;;;9.20;76.62
16595;BME280;8410;52.532;13.336;2023-11-21T06:05:53;100767.03;;;8.98;77.87
16595;BME280;8410;52.532;13.336;2023-11-21T06:08:22;100776.84;;;9.68;76.47
16595;BME280;8410;52.532;13.336;2023-11-21T06:10:51;100797.78;;;8.95;75.73
16595;BME280;8410;52.532;13.336;2023-11-21T06:13:18;100787.91;;;9.64;75.76
16595;BME280;8410;52.532;13.336;2023-11-21T06:15:50;100776.41;;;9.43;75.90
16595;BME280;8410;52.532;13.336;2023-11-21T06:18:18;100785.34;;;9.62;74.55
16595;BME280;8410;52.532;13.336;2023-11-21T06:20:46;100792.31;;;9.71;73.64
16595;BME280;8410;52.532;13.336;2023-11-21T06:23:14;100807.75;;;9.71;74.04
16595;BME280;8410;52.532;13.336;2023-11-21T06:25:44;100804.72;;;9.45;75.38
16595;BME280;8410;52.532;13.336;2023-11-21T06:28:11;100804.38;;;9.75;74.71
16595;BME280;8410;52.532;13.336;2023-11-21T06:30:39;100809.84;;;9.95;73.13
16595;BME280;8410;52.532;13.336;2023-11-21T06:33:06;100813.16;;;9.86;72.86
16595;BME280;8410;52.532;13.336;2023-11-21T06:35:34;100820.69;;;9.30;74.15
16595;BME280;8410;52.532;13.336;2023-11-21T06:38:02;100828.09;;;9.59;73.40
16595;BME280;8410;52.532;13.336;2023-11-21T06:40:29;100828.56;;;9.38;74.57
16595;BME280;8410;52.532;13.336;2023-11-21T06:42:59;100823.97;;;9.20;75.59
16595;BME280;8410;52.532;13.336;2023-11-21T06:45:26;100840.44;;;9.33;74.61
16595;BME280;8410;52.532;13.336;2023-11-21T06:47:53;100840.66;;;9.43;73.39
16595;BME280;8410;52.532;13.336;2023-11-21T06:50:21;100836.91;;;9.26;75.03
16595;BME280;8410;52.532;13.336;2023-11-21T06:52:48;100844.09;;;9.92;73.87
16595;BME280;8410;52.532;13.336;2023-11-21T06:55:16;100838.94;;;9.42;73.49
16595;BME280;8410;52.532;13.336;2023-11-21T06:57:43;100850.41;;;9.60;74.10
16595;BME280;8410;52.532;13.336;2023-11-21T07:00:15;100853.34;;;9.81;72.41
16595;BME280;8410;52.532;13.336;2023-11-21T07:02:44;100844.88;;;9.38;73.38
16595;BME280;8410;52.532;13.336;2023-11-21T07:05:12;100850.22;;;9.50;72.91
16595;BME280;8410;52.532;13.336;2023-11-21T07:07:40;100853.50;;;9.43;74.61
16595;BME280;8410;52.532;13.336;2023-11-21T07:10:08;100852.03;;;10.06;73.00
16595;BME280;8410;52.532;13.336;2023-11-21T07:12:36;100850.78;;;9.81;73.41
16595;BME280;8410;52.532;13.336;2023-11-21T07:15:04;100858.38;;;9.28;74.15
16595;BME280;8410;52.532;13.336;2023-11-21T07:17:36;100859.03;;;9.65;73.89
16595;BME280;8410;52.532;13.336;2023-11-21T07:20:07;100872.16;;;8.92;75.86
16595;BME280;8410;52.532;13.336;2023-11-21T07:22:35;100879.56;;;8.77;74.97
16595;BME280;8410;52.532;13.336;2023-11-21T07:25:03;100866.94;;;9.30;74.26
16595;BME280;8410;52.532;13.336;2023-11-21T07:27:31;100855.16;;;10.38;71.03
16595;BME280;8410;52.532;13.336;2023-11-21T07:30:00;100866.97;;;9.77;73.27
16595;BME280;8410;52.532;13.336;2023-11-21T07:32:29;100862.91;;;9.43;74.02
16595;BME280;8410;52.532;13.336;2023-11-21T07:34:58;100869.72;;;9.41;72.73
16595;BME280;8410;52.532;13.336;2023-11-21T07:37:27;100873.78;;;9.75;72.00
16595;BME280;8410;52.532;13.336;2023-11-21T07:39:55;100874.69;;;9.77;73.77
16595;BME280;8410;52.532;13.336;2023-11-21T07:42:23;100885.03;;;10.30;72.23
16595;BME280;8410;52.532;13.336;2023-11-21T07:44:52;100877.97;;;10.19;70.10
16595;BME280;8410;52.532;13.336;2023-11-21T07:47:20;100882.44;;;10.27;70.28
16595;BME280;8410;52.532;13.336;2023-11-21T07:49:47;100880.88;;;10.38;71.46
16595;BME280;8410;52.532;13.336;2023-11-21T07:52:16;100879.34;;;10.50;70.19
16595;BME280;8410;52.532;13.336;2023-11-21T07:54:44;100884.97;;;9.77;72.17
16595;BME280;8410;52.532;13.336;2023-11-21T07:57:11;100885.84;;;9.78;72.80
16595;BME280;8410;52.532;13.336;2023-11-21T07:59:40;100889.16;;;9.70;73.13
16595;BME280;8410;52.532;13.336;2023-11-21T08:02:08;100891.63;;;9.66;73.01
16595;BME280;8410;52.532;13.336;2023-11-21T08:04:35;100903.63;;;9.67;73.05
16595;BME280;8410;52.532;13.336;2023-11-21T08:07:03;100907.00;;;9.63;72.32
16595;BME280;8410;52.532;13.336;2023-11-21T08:09:32;100909.13;;;9.85;72.33
16595;BME280;8410;52.532;13.336;2023-11-21T08:12:00;100921.47;;;9.58;72.32
16595;BME280;8410;52.532;13.336;2023-11-21T08:14:29;100920.34;;;9.45;74.16
16595;BME280;8410;52.532;13.336;2023-11-21T08:16:56;100919.22;;;9.31;73.29
16595;BME280;8410;52.532;13.336;2023-11-21T08:19:25;100920.63;;;9.16;74.88
16595;BME280;8410;52.532;13.336;2023-11-21T08:21:53;100925.50;;;9.04;75.19
16595;BME280;8410;52.532;13.336;2023-11-21T08:24:21;100919.50;;;9.44;74.80
16595;BME280;8410;52.532;13.336;2023-11-21T08:26:50;100932.97;;;9.34;74.98
16595;BME280;8410;52.532;13.336;2023-11-21T08:29:18;100931.44;;;9.01;74.72
16595;BME280;8410;52.532;13.336;2023-11-21T08:31:46;100932.31;;;8.66;75.47
16595;BME280;8410;52.532;13.336;2023-11-21T08:34:14;100939.06;;;8.60;76.03
16595;BME280;8410;52.532;13.336;2023-11-21T08:36:42;100940.00;;;9.02;76.67
16595;BME280;8410;52.532;13.336;2023-11-21T08:39:10;100942.19;;;9.23;74.59
16595;BME280;8410;52.532;13.336;2023-11-21T08:41:39;100948.63;;;9.05;75.38
16595;BME280;8410;52.532;13.336;2023-11-21T08:44:07;100940.63;;;9.31;75.29
16595;BME280;8410;52.532;13.336;2023-11-21T08:46:35;100952.78;;;8.63;77.57
16595;BME280;8410;52.532;13.336;2023-11-21T08:49:03;100949.97;;;8.88;75.96
16595;BME280;8410;52.532;13.336;2023-11-21T08:51:31;100957.13;;;8.64;76.63
16595;BME280;8410;52.532;13.336;2023-11-21T08:53:58;100961.34;;;8.61;77.65
16595;BME280;8410;52.532;13.336;2023-11-21T08:56:28;100970.25;;;9.15;74.84
16595;BME280;8410;52.532;13.336;2023-11-21T08:58:55;100959.91;;;9.52;76.13
16595;BME280;8410;52.532;13.336;2023-11-21T09:01:24;100970.72;;;8.97;74.86
16595;BME280;8410;52.532;13.336;2023-11-21T09:03:52;100974.19;;;9.39;75.56
16595;BME280;8410;52.532;13.336;2023-11-21T09:06:20;100971.56;;;8.98;75.77
16595;BME280;8410;52.532;13.336;2023-11-21T09:08:47;100981.78;;;8.58;76.09
16595;BME280;8410;52.532;13.336;2023-11-21T09:11:15;100982.69;;;8.60;77.21
16595;BME280;8410;52.532;13.336;2023-11-21T09:13:42;100989.53;;;8.98;76.54
16595;BME280;8410;52.532;13.336;2023-11-21T09:16:10;100999.91;;;8.65;76.49
16595;BME280;8410;52.532;13.336;2023-11-21T09:18:39;101000.56;;;9.32;73.76
16595;BME280;8410;52.532;13.336;2023-11-21T09:21:07;101002.75;;;9.53;74.17
16595;BME280;8410;52.532;13.336;2023-11-21T09:23:35;101009.06;;;9.27;75.23
16595;BME280;8410;52.532;13.336;2023-11-21T09:26:03;101003.94;;;9.29;75.29
16595;BME280;8410;52.532;13.336;2023-11-21T09:28:32;101002.81;;;9.56;74.94
16595;BME280;8410;52.532;13.336;2023-11-21T09:30:59;101014.34;;;9.35;74.20
16595;BME280;8410;52.532;13.336;2023-11-21T09:33:29;101014.63;;;9.90;73.91
16595;BME280;8410;52.532;13.336;2023-11-21T09:35:58;101012.75;;;9.40;72.92
16595;BME280;8410;52.532;13.336;2023-11-21T09:38:26;101021.03;;;9.27;74.91
16595;BME280;8410;52.532;13.336;2023-11-21T09:40:55;101020.34;;;8.98;76.58
16595;BME280;8410;52.532;13.336;2023-11-21T09:43:25;101024.94;;;9.11;75.55
16595;BME280;8410;52.532;13.336;2023-11-21T09:45:59;101033.91;;;8.92;75.38
16595;BME280;8410;52.532;13.336;2023-11-21T09:48:29;101034.31;;;8.73;75.78
16595;BME280;8410;52.532;13.336;2023-11-21T09:50:59;101034.16;;;8.67;76.05
16595;BME280;8410;52.532;13.336;2023-11-21T09:53:32;101044.63;;;9.48;73.07
16595;BME280;8410;52.532;13.336;2023-11-21T09:56:00;101048.25;;;8.49;76.08
16595;BME280;8410;52.532;13.336;2023-11-21T09:58:29;101056.22;;;8.58;77.29
16595;BME280;8410;52.532;13.336;2023-11-21T10:00:59;101049.66;;;8.38;77.50
16595;BME280;8410;52.532;13.336;2023-11-21T10:03:27;101037.53;;;9.00;75.94
16595;BME280;8410;52.532;13.336;2023-11-21T10:05:56;101042.47;;;8.91;76.47
16595;BME280;8410;52.532;13.336;2023-11-21T10:08:27;101047.72;;;9.34;74.38
16595;BME280;8410;52.532;13.336;2023-11-21T10:11:12;101041.16;;;9.87;73.25
16595;BME280;8410;52.532;13.336;2023-11-21T10:13:43;101044.38;;;9.77;73.74
16595;BME280;8410;52.532;13.336;2023-11-21T10:16:14;101056.34;;;9.36;73.89
16595;BME280;8410;52.532;13.336;2023-11-21T10:18:43;101053.78;;;8.65;76.18
16595;BME280;8410;52.532;13.336;2023-11-21T10:21:12;101055.63;;;9.05;74.18
16595;BME280;8410;52.532;13.336;2023-11-21T10:23:41;101049.63;;;9.04;75.42
16595;BME280;8410;52.532;13.336;2023-11-21T10:26:11;101046.94;;;9.36;74.01
16595;BME280;8410;52.532;13.336;2023-11-21T10:28:57;101054.47;;;8.57;76.70
16595;BME280;8410;52.532;13.336;2023-11-21T10:31:26;101057.28;;;9.03;78.00
16595;BME280;8410;52.532;13.336;2023-11-21T10:33:54;101065.03;;;8.70;78.25
16595;BME280;8410;52.532;13.336;2023-11-21T10:36:26;101062.44;;;8.68;76.68
16595;BME280;8410;52.532;13.336;2023-11-21T10:38:55;101078.91;;;8.13;77.58
16595;BME280;8410;52.532;13.336;2023-11-21T10:41:23;101081.28;;;8.37;79.16
16595;BME280;8410;52.532;13.336;2023-11-21T10:43:53;101079.69;;;8.41;79.07
16595;BME280;8410;52.532;13.336;2023-11-21T10:46:22;101067.13;;;9.21;75.60
16595;BME280;8410;52.532;13.336;2023-11-21T10:48:52;101071.75;;;10.16;78.68
16595;BME280;8410;52.532;13.336;2023-11-21T10:51:20;101065.25;;;12.05;78.70
16595;BME280;8410;52.532;13.336;2023-11-21T10:53:48;101078.47;;;8.94;75.05
16595;BME280;8410;52.532;13.336;2023-11-21T10:56:19;101083.28;;;9.15;76.31
16595;BME280;8410;52.532;13.336;2023-11-21T10:58:48;101079.91;;;8.83;77.66
16595;BME280;8410;52.532;13.336;2023-11-21T11:01:17;101086.50;;;8.72;80.51
16595;BME280;8410;52.532;13.336;2023-11-21T11:03:47;101092.72;;;7.31;84.34
16595;BME280;8410;52.532;13.336;2023-11-21T11:06:16;101101.63;;;8.01;84.02
16595;BME280;8410;52.532;13.336;2023-11-21T11:08:44;101095.56;;;7.68;83.53
16595;BME280;8410;52.532;13.336;2023-11-21T11:11:12;101101.41;;;7.36;82.88
16595;BME280;8410;52.532;13.336;2023-11-21T11:13:44;101105.22;;;7.77;82.20
16595;BME280;8410;52.532;13.336;2023-11-21T11:16:13;101112.09;;;8.08;81.98
16595;BME280;8410;52.532;13.336;2023-11-21T11:18:43;101107.53;;;7.41;83.39
16595;BME280;8410;52.532;13.336;2023-11-21T11:21:25;101111.25;;;7.50;84.25
16595;BME280;8410;52.532;13.336;2023-11-21T11:24:13;101112.81;;;7.74;84.73
16595;BME280;8410;52.532;13.336;2023-11-21T11:26:47;101111.56;;;7.33;84.39
16595;BME280;8410;52.532;13.336;2023-11-21T11:29:25;101120.09;;;7.06;84.83
16595;BME280;8410;52.532;13.336;2023-11-21T11:32:04;101124.38;;;7.90;81.94
16595;BME280;8410;52.532;13.336;2023-11-21T11:34:41;101120.97;;;9.53;80.25
16595;BME280;8410;52.532;13.336;2023-11-21T11:37:12;101126.06;;;10.31;76.15
16595;BME280;8410;52.532;13.336;2023-11-21T11:39:41;101122.63;;;10.29;72.29
16595;BME280;8410;52.532;13.336;2023-11-21T11:42:12;101135.00;;;8.63;77.43
16595;BME280;8410;52.532;13.336;2023-11-21T11:44:52;101150.44;;;8.04;79.82
16595;BME280;8410;52.532;13.336;2023-11-21T11:47:23;101150.44;;;8.04;80.17
16595;BME280;8410;52.532;13.336;2023-11-21T11:50:03;101153.50;;;8.21;80.29
16595;BME280;8410;52.532;13.336;2023-11-21T11:52:41;101153.94;;;7.50;80.68
16595;BME280;8410;52.532;13.336;2023-11-21T11:55:10;101157.06;;;7.68;80.16
16595;BME280;8410;52.532;13.336;2023-11-21T11:57:40;101159.78;;;7.73;79.55
16595;BME280;8410;52.532;13.336;2023-11-21T12:00:14;101159.28;;;7.31;82.44
16595;BME280;8410;52.532;13.336;2023-11-21T12:02:52;101176.06;;;7.48;82.06
16595;BME280;8410;52.532;13.336;2023-11-21T12:05:21;101180.56;;;7.29;82.47
16595;BME280;8410;52.532;13.336;2023-11-21T12:07:50;101169.53;;;7.85;81.69
16595;BME280;8410;52.532;13.336;2023-11-21T12:10:20;101172.53;;;7.71;79.85
16595;BME280;8410;52.532;13.336;2023-11-21T12:12:51;101176.13;;;8.97;77.48
16595;BME280;8410;52.532;13.336;2023-11-21T12:15:22;101185.25;;;8.86;77.71
16595;BME280;8410;52.532;13.336;2023-11-21T12:17:50;101186.91;;;8.84;76.46
16595;BME280;8410;52.532;13.336;2023-11-21T12:20:19;101185.59;;;7.79;79.12
16595;BME280;8410;52.532;13.336;2023-11-21T12:22:48;101196.91;;;7.86;80.92
16595;BME280;8410;52.532;13.336;2023-11-21T12:25:16;101197.56;;;8.07;79.61
16595;BME280;8410;52.532;13.336;2023-11-21T12:27:46;101206.84;;;8.04;80.27
16595;BME280;8410;52.532;13.336;2023-11-21T12:30:18;101208.47;;;7.20;81.74
16595;BME280;8410;52.532;13.336;2023-11-21T12:32:49;101214.34;;;7.18;82.65
16595;BME280;8410;52.532;13.336;2023-11-21T12:35:19;101213.34;;;7.65;81.30
16595;BME280;8410;52.532;13.336;2023-11-21T12:37:48;101218.09;;;8.37;79.89
16595;BME280;8410;52.532;13.336;2023-11-21T12:40:16;101213.66;;;8.32;77.58
16595;BME280;8410;52.532;13.336;2023-11-21T12:42:44;101211.78;;;8.55;76.86
16595;BME280;8410;52.532;13.336;2023-11-21T12:45:19;101220.34;;;8.27;78.39
16595;BME280;8410;52.532;13.336;2023-11-21T12:47:49;101207.22;;;9.08;77.42
16595;BME280;8410;52.532;13.336;2023-11-21T12:50:21;101222.19;;;8.02;77.13
16595;BME280;8410;52.532;13.336;2023-11-21T12:52:51;101225.41;;;8.24;78.36
16595;BME280;8410;52.532;13.336;2023-11-21T12:55:21;101219.06;;;8.39;77.15
16595;BME280;8410;52.532;13.336;2023-11-21T12:57:49;101225.50;;;8.87;75.19
16595;BME280;8410;52.532;13.336;2023-11-21T13:00:28;101224.19;;;7.84;78.85
16595;BME280;8410;52.532;13.336;2023-11-21T13:02:58;101228.00;;;8.25;78.99
16595;BME280;8410;52.532;13.336;2023-11-21T13:05:30;101240.06;;;8.56;76.55